Connexion S'enregistrer

Connexion à votre compte

Identifiant
Mot de passe
Maintenir la connexion active sur ce site

Créer un compte

Pour valider ce formulaire, vous devez remplir tous les champs.
Nom
Identifiant
Mot de passe
Répétez le mot de passe
Adresse e-mail
Répétez l'adresse e-mail

Nous contacter

 Téléphone : +33 (0)4 79 54 41 81

Coordonnées détaillées et accès : cliquez ici

 
LFLB °C
    Ferienhaus Ostsee
[source: ADDS]
METAR
LFLB 212230Z AUTO 18004KT 130V210 CAVOK 10/09 Q1016 =
TAF LFLB 211400Z 2115/2215 35004KT CAVOK TEMPO 2115/2121 18005KT PROB40 TEMPO 2210/2213 -RA BKN060 OVC080
TAF
TAF LFLB 211400Z 2115/2215 35004KT CAVOK TEMPO 2115/2121 18005KT PROB40 TEMPO 2210/2213 -RA BKN060 OVC080 =
SR / SS: 06:03 / 16:38 UTC (Lever/Coucher du soleil le 2020-10-22)
JSN Boot template designed by JoomlaShine.com